sensor_id;sensor_type;location;lat;lon;timestamp;P1;durP1;ratioP1;P2;durP2;ratioP2
57730;SDS011;43570;47.476;19.040;2023-07-22T00:00:46;8.73;;;5.80;;
57730;SDS011;43570;47.476;19.040;2023-07-22T00:03:11;7.18;;;6.07;;
57730;SDS011;43570;47.476;19.040;2023-07-22T00:05:36;7.60;;;6.05;;
57730;SDS011;43570;47.476;19.040;2023-07-22T00:08:02;7.57;;;5.93;;
57730;SDS011;43570;47.476;19.040;2023-07-22T00:10:28;8.00;;;5.97;;
57730;SDS011;43570;47.476;19.040;2023-07-22T00:12:53;10.18;;;6.62;;
57730;SDS011;43570;47.476;19.040;2023-07-22T00:15:19;8.77;;;6.00;;
57730;SDS011;43570;47.476;19.040;2023-07-22T00:17:45;8.18;;;6.37;;
57730;SDS011;43570;47.476;19.040;2023-07-22T00:20:11;7.82;;;6.30;;
57730;SDS011;43570;47.476;19.040;2023-07-22T00:22:37;7.90;;;5.95;;
57730;SDS011;43570;47.476;19.040;2023-07-22T00:25:05;8.88;;;6.12;;
57730;SDS011;43570;47.476;19.040;2023-07-22T00:27:40;7.70;;;6.05;;
57730;SDS011;43570;47.476;19.040;2023-07-22T00:30:08;9.43;;;6.50;;
57730;SDS011;43570;47.476;19.040;2023-07-22T00:32:34;8.80;;;5.87;;
57730;SDS011;43570;47.476;19.040;2023-07-22T00:35:02;7.18;;;5.62;;
57730;SDS011;43570;47.476;19.040;2023-07-22T00:37:27;7.22;;;5.95;;
57730;SDS011;43570;47.476;19.040;2023-07-22T00:39:53;7.95;;;5.70;;
57730;SDS011;43570;47.476;19.040;2023-07-22T00:42:19;7.75;;;5.50;;
57730;SDS011;43570;47.476;19.040;2023-07-22T00:44:45;7.75;;;5.47;;
57730;SDS011;43570;47.476;19.040;2023-07-22T00:47:11;7.60;;;5.25;;
57730;SDS011;43570;47.476;19.040;2023-07-22T00:49:37;6.75;;;6.05;;
57730;SDS011;43570;47.476;19.040;2023-07-22T00:52:03;7.03;;;6.15;;
57730;SDS011;43570;47.476;19.040;2023-07-22T00:54:30;10.10;;;5.93;;
57730;SDS011;43570;47.476;19.040;2023-07-22T00:56:56;9.55;;;6.72;;
57730;SDS011;43570;47.476;19.040;2023-07-22T00:59:22;7.25;;;6.53;;
57730;SDS011;43570;47.476;19.040;2023-07-22T01:01:47;8.23;;;6.20;;
57730;SDS011;43570;47.476;19.040;2023-07-22T01:04:13;9.35;;;7.32;;
57730;SDS011;43570;47.476;19.040;2023-07-22T01:06:40;8.23;;;6.97;;
57730;SDS011;43570;47.476;19.040;2023-07-22T01:09:06;8.93;;;7.18;;
57730;SDS011;43570;47.476;19.040;2023-07-22T01:11:32;9.10;;;7.25;;
57730;SDS011;43570;47.476;19.040;2023-07-22T01:13:57;10.93;;;7.72;;
57730;SDS011;43570;47.476;19.040;2023-07-22T01:16:25;8.70;;;7.30;;
57730;SDS011;43570;47.476;19.040;2023-07-22T01:18:52;10.27;;;7.60;;
57730;SDS011;43570;47.476;19.040;2023-07-22T01:21:18;11.10;;;7.75;;
57730;SDS011;43570;47.476;19.040;2023-07-22T01:23:45;10.38;;;6.82;;
57730;SDS011;43570;47.476;19.040;2023-07-22T01:26:12;9.38;;;6.90;;
57730;SDS011;43570;47.476;19.040;2023-07-22T01:28:37;8.40;;;6.72;;
57730;SDS011;43570;47.476;19.040;2023-07-22T01:31:03;7.57;;;6.22;;
57730;SDS011;43570;47.476;19.040;2023-07-22T01:33:30;10.18;;;6.80;;
57730;SDS011;43570;47.476;19.040;2023-07-22T01:35:56;9.63;;;6.93;;
57730;SDS011;43570;47.476;19.040;2023-07-22T01:38:21;10.00;;;6.85;;
57730;SDS011;43570;47.476;19.040;2023-07-22T01:40:46;9.48;;;7.10;;
57730;SDS011;43570;47.476;19.040;2023-07-22T01:43:12;9.07;;;7.03;;
57730;SDS011;43570;47.476;19.040;2023-07-22T01:45:38;9.52;;;6.68;;
57730;SDS011;43570;47.476;19.040;2023-07-22T01:48:04;9.68;;;6.60;;
57730;SDS011;43570;47.476;19.040;2023-07-22T01:50:31;8.02;;;6.62;;
57730;SDS011;43570;47.476;19.040;2023-07-22T01:52:56;8.77;;;6.68;;
57730;SDS011;43570;47.476;19.040;2023-07-22T01:55:22;9.02;;;6.70;;
57730;SDS011;43570;47.476;19.040;2023-07-22T01:57:47;11.05;;;7.25;;
57730;SDS011;43570;47.476;19.040;2023-07-22T02:00:12;8.50;;;6.60;;
57730;SDS011;43570;47.476;19.040;2023-07-22T02:02:40;8.38;;;6.43;;
57730;SDS011;43570;47.476;19.040;2023-07-22T02:05:06;9.07;;;6.20;;
57730;SDS011;43570;47.476;19.040;2023-07-22T02:07:32;10.55;;;6.10;;
57730;SDS011;43570;47.476;19.040;2023-07-22T02:09:57;7.40;;;6.18;;
57730;SDS011;43570;47.476;19.040;2023-07-22T02:12:23;7.62;;;6.37;;
57730;SDS011;43570;47.476;19.040;2023-07-22T02:14:49;7.85;;;6.80;;
57730;SDS011;43570;47.476;19.040;2023-07-22T02:17:14;6.97;;;6.22;;
57730;SDS011;43570;47.476;19.040;2023-07-22T02:19:40;8.45;;;6.40;;
57730;SDS011;43570;47.476;19.040;2023-07-22T02:22:05;10.10;;;6.43;;
57730;SDS011;43570;47.476;19.040;2023-07-22T02:24:31;10.13;;;6.20;;
57730;SDS011;43570;47.476;19.040;2023-07-22T02:26:56;8.68;;;6.18;;
57730;SDS011;43570;47.476;19.040;2023-07-22T02:29:22;9.45;;;6.45;;
57730;SDS011;43570;47.476;19.040;2023-07-22T02:31:47;7.45;;;6.32;;
57730;SDS011;43570;47.476;19.040;2023-07-22T02:34:13;6.53;;;5.37;;
57730;SDS011;43570;47.476;19.040;2023-07-22T02:36:38;8.18;;;6.10;;
57730;SDS011;43570;47.476;19.040;2023-07-22T02:39:03;9.05;;;6.90;;
57730;SDS011;43570;47.476;19.040;2023-07-22T02:41:30;7.57;;;6.18;;
57730;SDS011;43570;47.476;19.040;2023-07-22T02:43:56;8.23;;;6.05;;
57730;SDS011;43570;47.476;19.040;2023-07-22T02:46:22;8.45;;;6.57;;
57730;SDS011;43570;47.476;19.040;2023-07-22T02:48:47;10.38;;;6.82;;
57730;SDS011;43570;47.476;19.040;2023-07-22T02:51:13;8.05;;;6.05;;
57730;SDS011;43570;47.476;19.040;2023-07-22T02:53:39;7.95;;;6.47;;
57730;SDS011;43570;47.476;19.040;2023-07-22T02:56:06;13.35;;;7.72;;
57730;SDS011;43570;47.476;19.040;2023-07-22T02:58:32;9.65;;;7.20;;
57730;SDS011;43570;47.476;19.040;2023-07-22T03:00:58;10.55;;;7.10;;
57730;SDS011;43570;47.476;19.040;2023-07-22T03:03:23;8.80;;;6.82;;
57730;SDS011;43570;47.476;19.040;2023-07-22T03:05:49;10.85;;;6.87;;
57730;SDS011;43570;47.476;19.040;2023-07-22T03:08:14;7.18;;;6.30;;
57730;SDS011;43570;47.476;19.040;2023-07-22T03:10:40;10.23;;;7.30;;
57730;SDS011;43570;47.476;19.040;2023-07-22T03:13:05;7.65;;;6.65;;
57730;SDS011;43570;47.476;19.040;2023-07-22T03:15:32;8.23;;;7.03;;
57730;SDS011;43570;47.476;19.040;2023-07-22T03:17:58;9.77;;;7.32;;
57730;SDS011;43570;47.476;19.040;2023-07-22T03:20:26;9.88;;;6.97;;
57730;SDS011;43570;47.476;19.040;2023-07-22T03:22:51;9.55;;;6.93;;
57730;SDS011;43570;47.476;19.040;2023-07-22T03:25:17;7.80;;;6.82;;
57730;SDS011;43570;47.476;19.040;2023-07-22T03:27:43;8.75;;;7.57;;
57730;SDS011;43570;47.476;19.040;2023-07-22T03:30:10;9.27;;;7.68;;
57730;SDS011;43570;47.476;19.040;2023-07-22T03:32:40;10.48;;;7.40;;
57730;SDS011;43570;47.476;19.040;2023-07-22T03:35:07;10.40;;;7.55;;
57730;SDS011;43570;47.476;19.040;2023-07-22T03:37:34;10.25;;;8.20;;
57730;SDS011;43570;47.476;19.040;2023-07-22T03:40:01;9.02;;;8.00;;
57730;SDS011;43570;47.476;19.040;2023-07-22T03:42:27;9.75;;;8.73;;
57730;SDS011;43570;47.476;19.040;2023-07-22T03:44:53;9.68;;;8.63;;
57730;SDS011;43570;47.476;19.040;2023-07-22T03:47:19;13.77;;;8.85;;
57730;SDS011;43570;47.476;19.040;2023-07-22T03:49:44;9.90;;;8.90;;
57730;SDS011;43570;47.476;19.040;2023-07-22T03:52:10;13.25;;;9.98;;
57730;SDS011;43570;47.476;19.040;2023-07-22T03:54:39;11.20;;;10.03;;
57730;SDS011;43570;47.476;19.040;2023-07-22T03:57:04;12.07;;;9.90;;
57730;SDS011;43570;47.476;19.040;2023-07-22T03:59:31;14.30;;;9.80;;
57730;SDS011;43570;47.476;19.040;2023-07-22T04:01:56;10.95;;;9.85;;
57730;SDS011;43570;47.476;19.040;2023-07-22T04:04:22;11.73;;;9.15;;
57730;SDS011;43570;47.476;19.040;2023-07-22T04:06:48;10.50;;;9.43;;
57730;SDS011;43570;47.476;19.040;2023-07-22T04:09:13;10.57;;;9.57;;
57730;SDS011;43570;47.476;19.040;2023-07-22T04:11:39;11.27;;;10.18;;
57730;SDS011;43570;47.476;19.040;2023-07-22T04:14:04;9.73;;;8.73;;
57730;SDS011;43570;47.476;19.040;2023-07-22T04:16:29;10.25;;;8.80;;
57730;SDS011;43570;47.476;19.040;2023-07-22T04:18:55;11.02;;;9.05;;
57730;SDS011;43570;47.476;19.040;2023-07-22T04:21:20;10.75;;;8.90;;
57730;SDS011;43570;47.476;19.040;2023-07-22T04:23:46;11.48;;;8.90;;
57730;SDS011;43570;47.476;19.040;2023-07-22T04:26:11;9.20;;;8.30;;
57730;SDS011;43570;47.476;19.040;2023-07-22T04:28:36;11.12;;;8.18;;
57730;SDS011;43570;47.476;19.040;2023-07-22T04:31:02;9.43;;;8.07;;
57730;SDS011;43570;47.476;19.040;2023-07-22T04:33:29;11.73;;;8.02;;
57730;SDS011;43570;47.476;19.040;2023-07-22T04:35:55;12.98;;;8.15;;
57730;SDS011;43570;47.476;19.040;2023-07-22T04:38:23;8.52;;;7.72;;
57730;SDS011;43570;47.476;19.040;2023-07-22T04:40:48;9.82;;;7.65;;
57730;SDS011;43570;47.476;19.040;2023-07-22T04:43:13;11.43;;;8.32;;
57730;SDS011;43570;47.476;19.040;2023-07-22T04:45:39;8.43;;;7.35;;
57730;SDS011;43570;47.476;19.040;2023-07-22T04:48:08;9.05;;;7.60;;
57730;SDS011;43570;47.476;19.040;2023-07-22T04:50:33;12.63;;;7.70;;
57730;SDS011;43570;47.476;19.040;2023-07-22T04:52:59;11.93;;;7.60;;
57730;SDS011;43570;47.476;19.040;2023-07-22T04:55:24;9.70;;;7.40;;
57730;SDS011;43570;47.476;19.040;2023-07-22T04:57:51;10.38;;;7.05;;
57730;SDS011;43570;47.476;19.040;2023-07-22T05:00:16;9.15;;;7.53;;
57730;SDS011;43570;47.476;19.040;2023-07-22T05:02:44;8.65;;;6.72;;
57730;SDS011;43570;47.476;19.040;2023-07-22T05:05:11;20.58;;;7.25;;
57730;SDS011;43570;47.476;19.040;2023-07-22T05:07:37;9.07;;;6.37;;
57730;SDS011;43570;47.476;19.040;2023-07-22T05:10:02;8.90;;;6.85;;
57730;SDS011;43570;47.476;19.040;2023-07-22T05:12:27;7.65;;;6.55;;
57730;SDS011;43570;47.476;19.040;2023-07-22T05:14:53;9.00;;;6.68;;
57730;SDS011;43570;47.476;19.040;2023-07-22T05:17:18;7.97;;;6.28;;
57730;SDS011;43570;47.476;19.040;2023-07-22T05:19:44;8.18;;;6.00;;
57730;SDS011;43570;47.476;19.040;2023-07-22T05:22:09;8.65;;;6.20;;
57730;SDS011;43570;47.476;19.040;2023-07-22T05:24:35;8.35;;;6.62;;
57730;SDS011;43570;47.476;19.040;2023-07-22T05:27:00;8.13;;;5.95;;
57730;SDS011;43570;47.476;19.040;2023-07-22T05:29:25;9.02;;;6.07;;
57730;SDS011;43570;47.476;19.040;2023-07-22T05:31:51;7.32;;;4.90;;
57730;SDS011;43570;47.476;19.040;2023-07-22T05:34:16;13.85;;;5.93;;
57730;SDS011;43570;47.476;19.040;2023-07-22T05:36:41;9.52;;;6.10;;
57730;SDS011;43570;47.476;19.040;2023-07-22T05:39:07;9.88;;;5.43;;
57730;SDS011;43570;47.476;19.040;2023-07-22T05:41:33;7.78;;;5.22;;
57730;SDS011;43570;47.476;19.040;2023-07-22T05:43:58;7.70;;;5.72;;
57730;SDS011;43570;47.476;19.040;2023-07-22T05:46:24;5.97;;;5.22;;
57730;SDS011;43570;47.476;19.040;2023-07-22T05:48:49;7.50;;;6.03;;
57730;SDS011;43570;47.476;19.040;2023-07-22T05:51:14;8.48;;;5.65;;
57730;SDS011;43570;47.476;19.040;2023-07-22T05:53:40;9.52;;;6.20;;
57730;SDS011;43570;47.476;19.040;2023-07-22T05:56:05;8.30;;;5.93;;
57730;SDS011;43570;47.476;19.040;2023-07-22T05:58:31;7.37;;;5.25;;
57730;SDS011;43570;47.476;19.040;2023-07-22T06:00:57;7.18;;;4.60;;
57730;SDS011;43570;47.476;19.040;2023-07-22T06:03:22;8.02;;;5.12;;
57730;SDS011;43570;47.476;19.040;2023-07-22T06:05:48;8.25;;;5.12;;
57730;SDS011;43570;47.476;19.040;2023-07-22T06:08:13;6.75;;;4.78;;
57730;SDS011;43570;47.476;19.040;2023-07-22T06:10:40;7.95;;;4.60;;
57730;SDS011;43570;47.476;19.040;2023-07-22T06:13:05;6.03;;;4.37;;
57730;SDS011;43570;47.476;19.040;2023-07-22T06:15:31;8.30;;;4.90;;
57730;SDS011;43570;47.476;19.040;2023-07-22T06:17:57;7.37;;;4.70;;
57730;SDS011;43570;47.476;19.040;2023-07-22T06:20:22;6.20;;;4.50;;
57730;SDS011;43570;47.476;19.040;2023-07-22T06:22:48;8.23;;;5.10;;
57730;SDS011;43570;47.476;19.040;2023-07-22T06:25:13;8.07;;;4.37;;
57730;SDS011;43570;47.476;19.040;2023-07-22T06:27:38;8.27;;;5.03;;
57730;SDS011;43570;47.476;19.040;2023-07-22T06:30:04;5.72;;;4.53;;
57730;SDS011;43570;47.476;19.040;2023-07-22T06:32:31;7.35;;;4.60;;
57730;SDS011;43570;47.476;19.040;2023-07-22T06:34:56;9.23;;;4.87;;
57730;SDS011;43570;47.476;19.040;2023-07-22T06:37:23;7.97;;;4.90;;
57730;SDS011;43570;47.476;19.040;2023-07-22T06:39:50;8.65;;;4.60;;
57730;SDS011;43570;47.476;19.040;2023-07-22T06:42:15;9.07;;;4.82;;
57730;SDS011;43570;47.476;19.040;2023-07-22T06:44:41;8.18;;;4.80;;
57730;SDS011;43570;47.476;19.040;2023-07-22T06:47:07;6.57;;;4.68;;
57730;SDS011;43570;47.476;19.040;2023-07-22T06:49:32;8.18;;;4.65;;
57730;SDS011;43570;47.476;19.040;2023-07-22T06:51:58;7.95;;;5.20;;
57730;SDS011;43570;47.476;19.040;2023-07-22T06:54:23;9.02;;;5.12;;
57730;SDS011;43570;47.476;19.040;2023-07-22T06:56:48;7.53;;;4.93;;
57730;SDS011;43570;47.476;19.040;2023-07-22T06:59:14;8.05;;;4.60;;
57730;SDS011;43570;47.476;19.040;2023-07-22T07:01:39;7.60;;;5.20;;
57730;SDS011;43570;47.476;19.040;2023-07-22T07:04:06;8.43;;;5.30;;
57730;SDS011;43570;47.476;19.040;2023-07-22T07:06:31;7.85;;;4.70;;
57730;SDS011;43570;47.476;19.040;2023-07-22T07:08:58;8.00;;;4.85;;
57730;SDS011;43570;47.476;19.040;2023-07-22T07:11:25;7.93;;;4.62;;
57730;SDS011;43570;47.476;19.040;2023-07-22T07:13:50;7.32;;;4.85;;
57730;SDS011;43570;47.476;19.040;2023-07-22T07:16:19;7.37;;;4.53;;
57730;SDS011;43570;47.476;19.040;2023-07-22T07:18:46;6.82;;;4.45;;
57730;SDS011;43570;47.476;19.040;2023-07-22T07:21:12;9.27;;;4.53;;
57730;SDS011;43570;47.476;19.040;2023-07-22T07:23:37;5.53;;;4.32;;
57730;SDS011;43570;47.476;19.040;2023-07-22T07:26:03;5.72;;;4.40;;
57730;SDS011;43570;47.476;19.040;2023-07-22T07:28:28;8.63;;;4.55;;
57730;SDS011;43570;47.476;19.040;2023-07-22T07:30:53;6.70;;;4.15;;
57730;SDS011;43570;47.476;19.040;2023-07-22T07:33:19;7.20;;;4.12;;
57730;SDS011;43570;47.476;19.040;2023-07-22T07:35:47;6.30;;;4.57;;
57730;SDS011;43570;47.476;19.040;2023-07-22T07:38:12;6.87;;;4.80;;
57730;SDS011;43570;47.476;19.040;2023-07-22T07:40:38;6.95;;;4.32;;
57730;SDS011;43570;47.476;19.040;2023-07-22T07:43:04;6.57;;;4.18;;
57730;SDS011;43570;47.476;19.040;2023-07-22T07:45:29;5.45;;;3.83;;
57730;SDS011;43570;47.476;19.040;2023-07-22T07:47:54;5.80;;;3.83;;
57730;SDS011;43570;47.476;19.040;2023-07-22T07:50:20;6.70;;;4.10;;
57730;SDS011;43570;47.476;19.040;2023-07-22T07:52:46;7.10;;;4.05;;
57730;SDS011;43570;47.476;19.040;2023-07-22T07:55:11;6.07;;;4.03;;
57730;SDS011;43570;47.476;19.040;2023-07-22T07:57:37;6.03;;;4.35;;
57730;SDS011;43570;47.476;19.040;2023-07-22T08:00:02;6.05;;;3.87;;
57730;SDS011;43570;47.476;19.040;2023-07-22T08:02:28;6.32;;;4.32;;
57730;SDS011;43570;47.476;19.040;2023-07-22T08:04:54;5.55;;;4.05;;
57730;SDS011;43570;47.476;19.040;2023-07-22T08:07:19;7.07;;;4.18;;
57730;SDS011;43570;47.476;19.040;2023-07-22T08:09:46;5.05;;;3.92;;
57730;SDS011;43570;47.476;19.040;2023-07-22T08:12:14;7.05;;;4.18;;
57730;SDS011;43570;47.476;19.040;2023-07-22T08:14:39;6.65;;;3.97;;
57730;SDS011;43570;47.476;19.040;2023-07-22T08:17:05;5.82;;;4.05;;
57730;SDS011;43570;47.476;19.040;2023-07-22T08:19:30;6.32;;;4.53;;
57730;SDS011;43570;47.476;19.040;2023-07-22T08:21:56;5.00;;;3.80;;
57730;SDS011;43570;47.476;19.040;2023-07-22T08:24:21;5.25;;;3.65;;
57730;SDS011;43570;47.476;19.040;2023-07-22T08:26:46;6.28;;;4.12;;
57730;SDS011;43570;47.476;19.040;2023-07-22T08:29:12;6.90;;;4.50;;
57730;SDS011;43570;47.476;19.040;2023-07-22T08:31:37;5.45;;;4.28;;
57730;SDS011;43570;47.476;19.040;2023-07-22T08:34:02;5.85;;;4.00;;
57730;SDS011;43570;47.476;19.040;2023-07-22T08:36:28;6.62;;;3.85;;
57730;SDS011;43570;47.476;19.040;2023-07-22T08:38:53;6.62;;;4.12;;
57730;SDS011;43570;47.476;19.040;2023-07-22T08:41:18;5.57;;;4.05;;
57730;SDS011;43570;47.476;19.040;2023-07-22T08:43:45;6.25;;;4.10;;
57730;SDS011;43570;47.476;19.040;2023-07-22T08:46:14;6.80;;;4.30;;
57730;SDS011;43570;47.476;19.040;2023-07-22T08:48:41;5.55;;;3.60;;
57730;SDS011;43570;47.476;19.040;2023-07-22T08:51:12;5.85;;;3.58;;
57730;SDS011;43570;47.476;19.040;2023-07-22T08:53:43;5.57;;;3.55;;
57730;SDS011;43570;47.476;19.040;2023-07-22T08:56:09;4.97;;;3.90;;
57730;SDS011;43570;47.476;19.040;2023-07-22T08:58:35;4.82;;;3.35;;
57730;SDS011;43570;47.476;19.040;2023-07-22T09:01:01;6.57;;;2.92;;
57730;SDS011;43570;47.476;19.040;2023-07-22T09:03:27;6.78;;;3.85;;
57730;SDS011;43570;47.476;19.040;2023-07-22T09:05:53;5.78;;;3.42;;
57730;SDS011;43570;47.476;19.040;2023-07-22T09:08:19;5.75;;;2.90;;
57730;SDS011;43570;47.476;19.040;2023-07-22T09:10:44;6.37;;;3.12;;
57730;SDS011;43570;47.476;19.040;2023-07-22T09:13:11;4.47;;;3.28;;
57730;SDS011;43570;47.476;19.040;2023-07-22T09:15:37;5.05;;;3.05;;
57730;SDS011;43570;47.476;19.040;2023-07-22T09:18:05;4.68;;;3.28;;
57730;SDS011;43570;47.476;19.040;2023-07-22T09:20:31;4.37;;;3.12;;
57730;SDS011;43570;47.476;19.040;2023-07-22T09:22:56;3.70;;;3.10;;
57730;SDS011;43570;47.476;19.040;2023-07-22T09:25:23;5.85;;;3.47;;
57730;SDS011;43570;47.476;19.040;2023-07-22T09:27:50;3.92;;;2.92;;
57730;SDS011;43570;47.476;19.040;2023-07-22T09:30:24;4.47;;;3.00;;
57730;SDS011;43570;47.476;19.040;2023-07-22T09:32:51;6.03;;;3.00;;
57730;SDS011;43570;47.476;19.040;2023-07-22T09:35:21;7.10;;;3.05;;
57730;SDS011;43570;47.476;19.040;2023-07-22T09:37:47;5.07;;;3.05;;
57730;SDS011;43570;47.476;19.040;2023-07-22T09:40:19;4.37;;;2.70;;
57730;SDS011;43570;47.476;19.040;2023-07-22T09:42:48;4.65;;;2.90;;
57730;SDS011;43570;47.476;19.040;2023-07-22T09:45:15;4.90;;;2.87;;
57730;SDS011;43570;47.476;19.040;2023-07-22T09:47:43;5.60;;;2.97;;
57730;SDS011;43570;47.476;19.040;2023-07-22T09:50:10;4.68;;;2.78;;
57730;SDS011;43570;47.476;19.040;2023-07-22T09:52:46;5.15;;;3.25;;
57730;SDS011;43570;47.476;19.040;2023-07-22T09:55:17;4.95;;;3.25;;
57730;SDS011;43570;47.476;19.040;2023-07-22T09:57:45;5.60;;;3.05;;
57730;SDS011;43570;47.476;19.040;2023-07-22T10:00:12;5.00;;;2.83;;
57730;SDS011;43570;47.476;19.040;2023-07-22T10:02:42;3.90;;;2.62;;
57730;SDS011;43570;47.476;19.040;2023-07-22T10:05:11;5.40;;;3.12;;
57730;SDS011;43570;47.476;19.040;2023-07-22T10:07:41;4.53;;;3.00;;
57730;SDS011;43570;47.476;19.040;2023-07-22T10:10:10;3.97;;;2.90;;
57730;SDS011;43570;47.476;19.040;2023-07-22T10:12:36;5.22;;;3.03;;
57730;SDS011;43570;47.476;19.040;2023-07-22T10:15:02;5.65;;;3.05;;
57730;SDS011;43570;47.476;19.040;2023-07-22T10:17:29;4.65;;;3.20;;
57730;SDS011;43570;47.476;19.040;2023-07-22T10:19:55;4.37;;;2.83;;
57730;SDS011;43570;47.476;19.040;2023-07-22T10:22:21;4.70;;;2.58;;
57730;SDS011;43570;47.476;19.040;2023-07-22T10:24:46;6.15;;;2.92;;
57730;SDS011;43570;47.476;19.040;2023-07-22T10:27:13;4.57;;;2.92;;
57730;SDS011;43570;47.476;19.040;2023-07-22T10:29:39;4.00;;;2.60;;
57730;SDS011;43570;47.476;19.040;2023-07-22T10:32:05;4.20;;;2.67;;
57730;SDS011;43570;47.476;19.040;2023-07-22T10:34:30;4.32;;;2.60;;
57730;SDS011;43570;47.476;19.040;2023-07-22T10:36:56;6.28;;;3.17;;
57730;SDS011;43570;47.476;19.040;2023-07-22T10:39:26;4.53;;;2.60;;
57730;SDS011;43570;47.476;19.040;2023-07-22T10:42:05;4.10;;;2.75;;
57730;SDS011;43570;47.476;19.040;2023-07-22T10:44:39;4.40;;;2.58;;
57730;SDS011;43570;47.476;19.040;2023-07-22T10:47:05;4.57;;;2.72;;
57730;SDS011;43570;47.476;19.040;2023-07-22T10:49:43;3.60;;;2.50;;
57730;SDS011;43570;47.476;19.040;2023-07-22T10:52:11;4.62;;;2.45;;
57730;SDS011;43570;47.476;19.040;2023-07-22T10:54:39;4.43;;;2.85;;
57730;SDS011;43570;47.476;19.040;2023-07-22T10:59:40;5.72;;;2.75;;
57730;SDS011;43570;47.476;19.040;2023-07-22T11:02:23;4.10;;;2.58;;
57730;SDS011;43570;47.476;19.040;2023-07-22T11:04:52;4.22;;;2.53;;
57730;SDS011;43570;47.476;19.040;2023-07-22T11:07:31;3.72;;;2.60;;
57730;SDS011;43570;47.476;19.040;2023-07-22T11:09:57;3.55;;;2.05;;
57730;SDS011;43570;47.476;19.040;2023-07-22T11:12:22;3.42;;;2.70;;
57730;SDS011;43570;47.476;19.040;2023-07-22T11:14:50;4.95;;;2.95;;
57730;SDS011;43570;47.476;19.040;2023-07-22T11:17:18;5.12;;;2.22;;
57730;SDS011;43570;47.476;19.040;2023-07-22T11:19:53;4.82;;;2.67;;
57730;SDS011;43570;47.476;19.040;2023-07-22T11:22:18;4.22;;;2.53;;
57730;SDS011;43570;47.476;19.040;2023-07-22T11:24:44;3.62;;;2.20;;
57730;SDS011;43570;47.476;19.040;2023-07-22T11:27:09;4.55;;;2.60;;
57730;SDS011;43570;47.476;19.040;2023-07-22T11:29:35;5.70;;;2.90;;
57730;SDS011;43570;47.476;19.040;2023-07-22T11:32:01;3.35;;;2.00;;
57730;SDS011;43570;47.476;19.040;2023-07-22T11:34:27;4.82;;;2.22;;
57730;SDS011;43570;47.476;19.040;2023-07-22T11:36:53;4.07;;;2.30;;
57730;SDS011;43570;47.476;19.040;2023-07-22T11:39:29;2.20;;;1.87;;
57730;SDS011;43570;47.476;19.040;2023-07-22T11:41:57;5.45;;;2.10;;
57730;SDS011;43570;47.476;19.040;2023-07-22T11:44:27;3.00;;;2.30;;
57730;SDS011;43570;47.476;19.040;2023-07-22T11:46:59;5.28;;;2.12;;
57730;SDS011;43570;47.476;19.040;2023-07-22T11:49:41;3.22;;;2.20;;
57730;SDS011;43570;47.476;19.040;2023-07-22T11:52:10;6.65;;;2.70;;
57730;SDS011;43570;47.476;19.040;2023-07-22T11:54:38;4.50;;;2.50;;
57730;SDS011;43570;47.476;19.040;2023-07-22T11:57:14;3.67;;;2.30;;
57730;SDS011;43570;47.476;19.040;2023-07-22T11:59:53;3.58;;;1.95;;
57730;SDS011;43570;47.476;19.040;2023-07-22T12:02:23;4.90;;;1.95;;
57730;SDS011;43570;47.476;19.040;2023-07-22T12:04:57;3.58;;;1.90;;
57730;SDS011;43570;47.476;19.040;2023-07-22T12:07:27;4.78;;;3.10;;
57730;SDS011;43570;47.476;19.040;2023-07-22T12:09:55;4.25;;;2.08;;
57730;SDS011;43570;47.476;19.040;2023-07-22T12:12:31;3.05;;;1.73;;
57730;SDS011;43570;47.476;19.040;2023-07-22T12:17:48;3.05;;;1.90;;
57730;SDS011;43570;47.476;19.040;2023-07-22T12:20:16;2.75;;;2.00;;
57730;SDS011;43570;47.476;19.040;2023-07-22T12:22:43;2.92;;;2.30;;
57730;SDS011;43570;47.476;19.040;2023-07-22T12:25:09;2.85;;;1.92;;
57730;SDS011;43570;47.476;19.040;2023-07-22T12:27:36;2.95;;;2.12;;
57730;SDS011;43570;47.476;19.040;2023-07-22T12:30:01;3.20;;;2.17;;
57730;SDS011;43570;47.476;19.040;2023-07-22T12:32:28;3.10;;;2.10;;
57730;SDS011;43570;47.476;19.040;2023-07-22T12:34:53;3.60;;;2.10;;
57730;SDS011;43570;47.476;19.040;2023-07-22T12:37:18;3.70;;;2.03;;
57730;SDS011;43570;47.476;19.040;2023-07-22T12:39:45;2.95;;;1.73;;
57730;SDS011;43570;47.476;19.040;2023-07-22T12:42:11;3.70;;;1.95;;
57730;SDS011;43570;47.476;19.040;2023-07-22T12:44:36;3.50;;;2.03;;
57730;SDS011;43570;47.476;19.040;2023-07-22T12:47:01;3.70;;;2.20;;
57730;SDS011;43570;47.476;19.040;2023-07-22T12:49:27;3.05;;;1.70;;
57730;SDS011;43570;47.476;19.040;2023-07-22T12:51:52;2.55;;;1.73;;
57730;SDS011;43570;47.476;19.040;2023-07-22T12:54:19;3.30;;;1.85;;
57730;SDS011;43570;47.476;19.040;2023-07-22T12:56:46;3.40;;;1.98;;
57730;SDS011;43570;47.476;19.040;2023-07-22T12:59:11;2.10;;;1.65;;
57730;SDS011;43570;47.476;19.040;2023-07-22T13:01:36;3.25;;;1.67;;
57730;SDS011;43570;47.476;19.040;2023-07-22T13:04:04;3.20;;;1.90;;
57730;SDS011;43570;47.476;19.040;2023-07-22T13:06:30;4.43;;;2.10;;
57730;SDS011;43570;47.476;19.040;2023-07-22T13:08:56;3.25;;;2.10;;
57730;SDS011;43570;47.476;19.040;2023-07-22T13:11:21;3.50;;;2.25;;
57730;SDS011;43570;47.476;19.040;2023-07-22T13:13:46;3.72;;;2.10;;
57730;SDS011;43570;47.476;19.040;2023-07-22T13:16:12;2.83;;;2.00;;
57730;SDS011;43570;47.476;19.040;2023-07-22T13:18:37;2.50;;;1.80;;
57730;SDS011;43570;47.476;19.040;2023-07-22T13:21:02;2.60;;;2.03;;
57730;SDS011;43570;47.476;19.040;2023-07-22T13:23:28;3.22;;;1.73;;
57730;SDS011;43570;47.476;19.040;2023-07-22T13:25:53;3.05;;;1.80;;
57730;SDS011;43570;47.476;19.040;2023-07-22T13:28:18;2.90;;;2.00;;
57730;SDS011;43570;47.476;19.040;2023-07-22T13:30:44;3.80;;;1.80;;
57730;SDS011;43570;47.476;19.040;2023-07-22T13:33:09;3.20;;;1.75;;
57730;SDS011;43570;47.476;19.040;2023-07-22T13:35:35;2.55;;;1.75;;
57730;SDS011;43570;47.476;19.040;2023-07-22T13:38:00;1.95;;;1.75;;
57730;SDS011;43570;47.476;19.040;2023-07-22T13:40:26;4.05;;;2.00;;
57730;SDS011;43570;47.476;19.040;2023-07-22T13:42:51;4.68;;;2.40;;
57730;SDS011;43570;47.476;19.040;2023-07-22T13:45:16;3.17;;;2.20;;
57730;SDS011;43570;47.476;19.040;2023-07-22T13:47:42;3.72;;;1.92;;
57730;SDS011;43570;47.476;19.040;2023-07-22T13:50:07;2.78;;;1.73;;
57730;SDS011;43570;47.476;19.040;2023-07-22T13:52:33;4.07;;;2.10;;
57730;SDS011;43570;47.476;19.040;2023-07-22T13:54:58;4.35;;;1.77;;
57730;SDS011;43570;47.476;19.040;2023-07-22T13:57:24;2.87;;;2.00;;
57730;SDS011;43570;47.476;19.040;2023-07-22T13:59:49;3.42;;;1.92;;
57730;SDS011;43570;47.476;19.040;2023-07-22T14:02:15;3.28;;;1.85;;
57730;SDS011;43570;47.476;19.040;2023-07-22T14:04:40;3.70;;;1.80;;
57730;SDS011;43570;47.476;19.040;2023-07-22T14:07:05;2.40;;;1.62;;
57730;SDS011;43570;47.476;19.040;2023-07-22T14:09:31;3.20;;;2.17;;
57730;SDS011;43570;47.476;19.040;2023-07-22T14:11:56;3.05;;;2.05;;
57730;SDS011;43570;47.476;19.040;2023-07-22T14:14:22;2.28;;;1.90;;
57730;SDS011;43570;47.476;19.040;2023-07-22T14:16:53;7.65;;;5.35;;
57730;SDS011;43570;47.476;19.040;2023-07-22T14:19:22;10.13;;;2.00;;
57730;SDS011;43570;47.476;19.040;2023-07-22T14:21:48;2.67;;;2.05;;
57730;SDS011;43570;47.476;19.040;2023-07-22T14:24:14;5.37;;;1.95;;
57730;SDS011;43570;47.476;19.040;2023-07-22T14:26:39;3.60;;;2.05;;
57730;SDS011;43570;47.476;19.040;2023-07-22T14:29:04;3.10;;;1.90;;
57730;SDS011;43570;47.476;19.040;2023-07-22T14:31:30;3.22;;;1.90;;
57730;SDS011;43570;47.476;19.040;2023-07-22T14:33:55;4.47;;;1.67;;